Latest Weather Observations for Pearce

IDW60801

Issued at 5:13 am WST Tuesday 25 September 2018 (issued every 10 minutes, with the page automatically refreshed every 10 minutes)

About weather observations | Map of weather stations | Latest weather observations for WA | Other Formats
Station Details ID: 009053 Name: PEARCE RAAF Lat: -31.67 Lon: 116.02 Height: 40.0 m
Data from the previous 72 hours. | See also: Recent months at Pearce
Date/Time
WST
Temp
°C
App
Temp
°C
Dew
Point
°C
Rel
Hum
%
Delta-T
°C
Wind Press
QNH
hPa
Press
MSL
hPa
Rain since
9am
mm
Dir  Spd
km/h
Gust
km/h
Spd
kts
Gust
kts
25/05:00am 7.0 6.2 6.3 95 0.3 CALM 0 0 0 0 1021.2 1021.2 0.0
25/04:54am 7.1 6.3 6.4 95 0.3 CALM 0 0 0 0 1021.1 1021.1 0.0
25/04:48am 6.9 6.0 6.0 94 0.4 CALM 0 0 0 0 1021.2 1021.2 0.0
25/04:35am 7.5 6.7 6.6 94 0.4 CALM 0 0 0 0 1021.2 1021.2 0.0
25/04:30am 8.0 7.4 7.2 95 0.4 CALM 0 0 0 0 1021.2 1021.2 0.0
25/04:13am 8.0 7.4 7.2 95 0.4 CALM 0 0 0 0 1021.3 1021.3 0.0
25/04:09am 7.8 7.1 7.1 95 0.3 CALM 0 0 0 0 1021.3 1021.3 0.0
25/04:00am 7.8 7.1 7.1 95 0.3 CALM 0 0 0 0 1021.2 1021.2 0.0
25/03:30am 8.3 6.9 7.4 94 0.4 SW 4 6 2 3 1021.0 1021.0 0.0
25/03:29am 8.4 7.1 7.5 94 0.4 SW 4 6 2 3 1021.0 1021.0 0.0
25/03:13am 8.6 6.9 7.7 94 0.4 SW 6 7 3 4 1021.0 1021.0 0.0
25/03:00am 8.2 6.4 7.3 94 0.4 SW 6 6 3 3 1021.1 1021.1 0.0
25/02:30am 9.4 7.9 8.5 94 0.4 SW 6 7 3 4 1021.1 1021.1 0.0
25/02:00am 9.9 8.6 9.1 95 0.4 SW 6 7 3 4 1021.2 1021.2 0.0
25/01:30am 9.8 8.2 8.9 94 0.4 SW 7 7 4 4 1021.4 1021.4 0.0
25/01:19am 9.7 8.1 8.8 94 0.4 SW 7 7 4 4 1021.4 1021.4 0.0
25/01:00am 9.7 8.2 8.6 93 0.5 SW 6 7 3 4 1021.5 1021.5 0.0
25/12:58am 9.7 8.2 8.6 93 0.5 SW 6 7 3 4 1021.5 1021.5 0.0
25/12:30am 10.0 8.6 8.8 92 0.6 SW 6 6 3 3 1021.6 1021.6 0.0
25/12:00am 10.8 9.6 9.6 92 0.6 SW 6 7 3 4 1021.7 1021.7 0.0
 
Date/Time
WST
Temp
°C
App
Temp
°C
Dew
Point
°C
Rel
Hum
%
Delta-T
°C
Wind Press
QNH
hPa
Press
MSL
hPa
Rain since
9am
mm
Dir  Spd
km/h
Gust
km/h
Spd
kts
Gust
kts
24/11:30pm 10.7 9.4 9.1 90 0.8 SW 6 6 3 3 1021.8 1021.8 0.0
24/11:00pm 12.0 12.0 9.9 87 1.1 CALM 0 0 0 0 1021.9 1021.9 0.0
24/10:30pm 12.9 13.2 11.0 88 1.0 CALM 0 0 0 0 1022.0 1022.0 0.0
24/10:00pm 13.3 13.7 11.2 87 1.1 CALM 0 6 0 3 1022.2 1022.2 0.0
24/09:30pm 13.8 14.4 11.8 88 1.1 CALM 0 0 0 0 1022.3 1022.3 0.0
24/09:00pm 14.2 14.9 12.1 87 1.1 CALM 0 0 0 0 1022.2 1022.2 0.0
24/08:30pm 14.1 13.6 12.0 87 1.1 S 6 9 3 5 1021.9 1021.9 0.0
24/08:00pm 13.9 12.7 11.6 86 1.2 SW 9 11 5 6 1021.7 1021.7 0.0
24/07:30pm 14.5 12.7 12.0 85 1.4 SW 13 13 7 7 1021.2 1021.2 0.0
24/07:00pm 15.1 13.3 12.2 83 1.6 SW 13 17 7 9 1020.9 1020.9 0.0
24/06:30pm 15.9 14.2 12.5 80 1.9 SW 13 17 7 9 1020.4 1020.4 0.0
24/06:00pm 16.9 15.2 12.6 76 2.4 SW 13 17 7 9 1020.2 1020.2 0.0
24/05:30pm 18.1 15.3 12.5 70 3.1 SW 19 22 10 12 1019.8 1019.8 0.0
24/05:00pm 19.4 17.5 12.9 66 3.7 WSW 15 20 8 11 1019.5 1019.4 0.0
24/04:30pm 19.9 17.1 12.7 63 4.1 SW 19 22 10 12 1019.3 1019.2 0.0
24/04:00pm 20.6 18.0 13.1 62 4.3 WSW 19 24 10 13 1019.1 1019.0 0.0
24/03:30pm 20.8 17.9 13.0 61 4.4 WSW 20 26 11 14 1019.0 1018.9 0.0
24/03:00pm 21.0 18.8 13.2 61 4.5 SW 17 26 9 14 1019.1 1019.0 0.0
24/02:30pm 21.1 19.0 13.5 62 4.4 SW 17 28 9 15 1019.2 1019.1 0.0
24/02:00pm 21.3 19.1 13.2 60 4.6 SW 17 24 9 13 1019.2 1019.1 0.0
24/01:30pm 21.7 19.0 12.8 57 5.1 WSW 19 32 10 17 1019.3 1019.2 0.0
24/01:00pm 21.6 19.5 13.5 60 4.7 W 17 22 9 12 1019.6 1019.5 0.0
24/12:30pm 21.3 19.0 13.0 59 4.7 WSW 17 24 9 13 1019.8 1019.8 0.0
24/12:00pm 21.0 18.5 12.4 58 4.8 W 17 20 9 11 1020.0 1020.0 0.0
24/11:30am 21.0 19.3 13.7 63 4.2 W 15 19 8 10 1020.3 1020.3 0.0
24/11:00am 20.7 19.9 13.9 65 3.9 WNW 11 19 6 10 1020.6 1020.6 0.0
24/10:30am 19.5 18.0 13.2 67 3.6 W 13 19 7 10 1020.8 1020.8 0.0
24/10:00am 18.8 17.2 12.8 68 3.4 WNW 13 19 7 10 1020.9 1020.9 0.0
24/09:30am 18.8 17.7 14.3 75 2.6 NNW 13 17 7 9 1020.9 1020.9 0.0
24/09:00am 17.7 16.1 13.8 78 2.2 N 15 20 8 11 1020.7 1020.7 0.0
24/08:30am 16.6 15.2 14.4 87 1.3 NNW 15 19 8 10 1020.8 1020.8 0.0
24/08:00am 15.6 13.7 14.3 92 0.7 NNW 17 20 9 11 1020.9 1020.9 0.0
24/07:30am 15.0 13.9 14.2 95 0.5 NNW 13 17 7 9 1020.9 1020.9 0.0
24/07:10am 14.4 13.1 13.6 95 0.4 NNW 13 17 7 9 1020.9 1020.9 0.0
24/07:00am 14.6 13.8 14.0 96 0.3 N 11 17 6 9 1020.8 1020.8 0.0
24/06:30am 14.4 13.5 13.8 96 0.3 NNW 11 15 6 8 1020.5 1020.5 0.0
24/06:00am 14.2 14.0 13.6 96 0.3 NNW 7 9 4 5 1020.2 1020.2 0.0
24/05:30am 14.1 13.9 13.5 96 0.3 NNW 7 9 4 5 1019.9 1019.9 0.0
24/05:00am 14.2 14.0 13.6 96 0.3 N 7 9 4 5 1019.8 1019.8 0.0
24/04:30am 13.9 12.8 13.1 95 0.4 N 11 15 6 8 1019.6 1019.5 0.0
24/04:00am 14.1 13.8 13.3 95 0.4 N 7 9 4 5 1019.4 1019.3 0.0
24/03:30am 13.9 13.1 13.0 94 0.5 N 9 11 5 6 1019.4 1019.3 0.0
24/03:00am 13.5 12.6 12.6 94 0.5 N 9 11 5 6 1019.4 1019.3 0.0
24/02:30am 13.1 12.4 12.0 93 0.6 WNW 7 7 4 4 1019.5 1019.4 0.0
24/02:21am 12.7 11.8 11.4 92 0.7 NW 7 9 4 5 1019.6 1019.5 0.0
24/02:19am 12.6 11.7 11.3 92 0.7 NW 7 9 4 5 1019.6 1019.5 0.0
24/02:00am 13.1 12.3 11.8 92 0.7 N 7 13 4 7 1019.7 1019.7 0.0
24/01:30am 13.7 13.1 12.4 92 0.7 NNW 7 11 4 6 1020.1 1020.1 0.0
24/01:02am 14.1 13.2 12.5 90 0.9 NNW 9 11 5 6 1020.2 1020.2 0.0
24/01:00am 14.2 13.3 12.6 90 0.9 N 9 11 5 6 1020.2 1020.2 0.0
24/12:30am 14.2 13.3 12.6 90 0.9 N 9 13 5 7 1020.3 1020.3 0.0
24/12:00am 13.4 12.5 11.5 88 1.0 NW 7 9 4 5 1020.3 1020.3 0.0
 
Date/Time
WST
Temp
°C
App
Temp
°C
Dew
Point
°C
Rel
Hum
%
Delta-T
°C
Wind Press
QNH
hPa
Press
MSL
hPa
Rain since
9am
mm
Dir  Spd
km/h
Gust
km/h
Spd
kts
Gust
kts
23/11:30pm 13.1 12.2 10.8 86 1.2 N 6 7 3 4 1020.3 1020.3 0.0
23/11:00pm 13.9 13.1 11.6 86 1.2 N 7 9 4 5 1020.5 1020.5 0.0
23/10:47pm 12.9 11.9 10.3 84 1.3 N 6 6 3 3 1020.5 1020.5 0.0
23/10:30pm 13.4 12.1 10.0 80 1.8 N 7 9 4 5 1020.6 1020.6 0.0
23/10:00pm 15.3 14.0 11.3 77 2.1 N 9 11 5 6 1020.7 1020.7 0.0
23/09:30pm 15.1 13.3 10.7 75 2.3 NNE 11 13 6 7 1020.8 1020.8 0.0
23/09:00pm 15.6 14.7 11.2 75 2.4 N 7 9 4 5 1020.4 1020.4 0.0
23/08:30pm 14.3 12.4 9.1 71 2.7 NW 9 15 5 8 1020.6 1020.6 0.0
23/08:00pm 17.7 15.9 9.6 59 4.3 NNE 9 11 5 6 1020.3 1020.3 0.0
23/07:30pm 18.4 16.5 9.2 55 4.8 NNE 9 11 5 6 1020.1 1020.1 0.0
23/07:00pm 19.4 18.7 8.4 49 5.7 W 2 7 1 4 1019.8 1019.8 0.0
23/06:30pm 19.7 17.6 8.4 48 5.9 W 9 13 5 7 1019.6 1019.5 0.0
23/06:00pm 20.7 18.0 9.0 47 6.2 W 13 15 7 8 1019.2 1019.1 0.0
23/05:30pm 23.0 21.1 9.0 41 7.5 W 9 13 5 7 1018.8 1018.7 0.0
23/05:00pm 24.0 21.3 8.8 38 8.2 W 13 15 7 8 1018.5 1018.4 0.0
23/04:30pm 24.5 21.6 9.6 39 8.2 W 15 20 8 11 1018.4 1018.3 0.0
23/04:00pm 25.0 20.8 9.7 38 8.4 WSW 22 28 12 15 1018.1 1018.0 0.0
23/03:30pm 26.4 23.0 11.3 39 8.6 WSW 20 24 11 13 1017.8 1017.7 0.0
23/03:00pm 27.5 25.8 12.3 39 8.8 W 13 20 7 11 1017.7 1017.6 0.0
23/02:30pm 27.8 24.5 9.6 32 10.1 NNW 17 22 9 12 1017.5 1017.4 0.0
23/02:00pm 27.3 23.9 9.2 32 10.0 NNW 17 24 9 13 1017.7 1017.6 0.0
23/01:30pm 26.6 22.9 9.5 34 9.4 NW 19 24 10 13 1018.1 1018.0 0.0
23/01:00pm 26.4 22.5 9.3 34 9.4 NNW 20 28 11 15 1018.4 1018.3 0.0
23/12:30pm 25.7 23.5 12.2 43 7.8 NNW 15 22 8 12 1018.9 1018.8 0.0
23/12:00pm 25.6 24.3 11.4 41 8.0 NNW 9 19 5 10 1019.1 1019.0 0.0
23/11:30am 24.4 23.6 11.7 45 7.2 NW 7 15 4 8 1019.6 1019.5 0.0
23/11:00am 22.5 22.0 12.7 54 5.6 SW 7 11 4 6 1019.9 1019.9 0.0
23/10:30am 22.0 22.7 14.4 62 4.5 SSW 4 7 2 4 1020.2 1020.2 0.0
23/10:00am 20.8 20.6 13.7 64 4.1 SW 7 9 4 5 1020.2 1020.2 0.0
23/09:30am 19.9 18.9 13.4 66 3.7 SSW 11 15 6 8 1020.3 1020.3 0.0
23/09:00am 19.1 18.2 12.6 66 3.6 SSW 9 17 5 9 1020.1 1020.1 0.0
23/08:30am 18.8 17.9 12.5 67 3.5 SE 9 11 5 6 1019.9 1019.9 0.0
23/08:00am 18.1 16.8 12.5 70 3.1 ESE 11 19 6 10 1019.9 1019.9 0.0
23/07:30am 16.8 14.5 11.9 73 2.7 E 15 24 8 13 1019.5 1019.4 0.0
23/07:00am 15.5 13.8 11.1 75 2.3 ENE 11 20 6 11 1019.2 1019.1 0.0
23/06:30am 14.5 13.0 10.5 77 2.1 E 9 15 5 8 1018.8 1018.7 0.0
23/06:00am 13.9 12.3 10.1 78 2.0 E 9 17 5 9 1018.6 1018.5 0.0
23/05:30am 13.4 13.3 12.1 92 0.7 NNE 4 7 2 4 1018.4 1018.3 0.0
23/05:00am 9.1 7.9 8.0 93 0.5 WNW 4 9 2 5 1018.3 1018.2 0.0
23/04:30am 8.7 6.8 7.6 93 0.5 WNW 7 9 4 5 1018.4 1018.3 0.0
23/04:00am 8.7 7.0 7.6 93 0.5 NW 6 9 3 5 1018.3 1018.2 0.0
23/03:30am 8.9 6.7 7.7 92 0.6 NNW 9 11 5 6 1018.6 1018.5 0.0
23/03:00am 9.7 9.3 8.1 90 0.8 CALM 0 0 0 0 1018.9 1018.8 0.0
23/02:30am 9.9 9.5 8.2 89 0.8 CALM 0 0 0 0 1019.3 1019.2 0.0
23/02:00am 12.1 12.3 10.5 90 0.8 CALM 0 0 0 0 1019.5 1019.4 0.0
23/01:30am 11.9 12.0 10.1 89 0.9 CALM 0 0 0 0 1020.0 1020.0 0.0
23/01:00am 11.9 12.0 10.0 88 1.0 CALM 0 0 0 0 1020.2 1020.2 0.0
23/12:30am 11.7 10.8 9.1 84 1.3 ENE 4 7 2 4 1020.4 1020.4 0.0
23/12:00am 14.0 13.2 11.0 82 1.6 E 6 9 3 5 1020.4 1020.4 0.0
 
Date/Time
WST
Temp
°C
App
Temp
°C
Dew
Point
°C
Rel
Hum
%
Delta-T
°C
Wind Press
QNH
hPa
Press
MSL
hPa
Rain since
9am
mm
Dir  Spd
km/h
Gust
km/h
Spd
kts
Gust
kts
22/11:30pm 13.4 13.8 11.1 86 1.2 CALM 0 0 0 0 1020.4 1020.4 0.0
22/11:00pm 13.5 12.7 10.9 84 1.4 N 6 9 3 5 1020.2 1020.2 0.0
22/10:30pm 12.6 11.9 10.1 85 1.3 NW 4 13 2 7 1020.3 1020.3 0.0
22/10:00pm 13.2 12.1 10.6 84 1.4 NNE 7 11 4 6 1020.3 1020.3 0.0
22/09:30pm 14.5 13.6 10.5 77 2.1 SSE 6 13 3 7 1020.5 1020.5 0.0
22/09:00pm 14.9 14.7 10.3 74 2.4 NNW 2 7 1 4 1020.1 1020.1 0.0
22/08:30pm 16.2 16.3 10.3 68 3.1 CALM 0 0 0 0 1020.1 1020.1 0.0
22/08:00pm 16.6 16.9 10.9 69 3.0 CALM 0 0 0 0 1020.0 1020.0 0.0
22/07:30pm 17.5 16.2 10.1 62 3.9 SSW 7 9 4 5 1019.8 1019.8 0.0
22/07:00pm 17.7 15.9 10.8 64 3.7 S 11 13 6 7 1019.2 1019.1 0.0
22/06:30pm 18.5 16.8 11.1 62 4.0 SSW 11 13 6 7 1019.0 1018.9 0.0
22/06:00pm 19.0 16.1 11.1 60 4.3 SSW 17 19 9 10 1018.7 1018.6 0.0
22/05:30pm 20.7 17.3 11.1 54 5.3 SSW 20 28 11 15 1018.3 1018.2 0.0
22/05:00pm 23.0 18.9 7.9 38 7.9 S 19 33 10 18 1017.6 1017.5 0.0
22/04:30pm 26.7 23.4 4.5 24 11.2 SSE 11 17 6 9 1017.3 1017.2 0.0
22/04:00pm 27.1 24.1 4.2 23 11.5 SSW 9 13 5 7 1017.1 1017.0 0.0
22/03:30pm 27.2 23.1 4.3 23 11.6 SSW 15 19 8 10 1017.2 1017.1 0.0
22/03:00pm 27.2 23.6 4.9 24 11.4 S 13 19 7 10 1017.2 1017.1 0.0
22/02:30pm 27.0 24.6 10.2 35 9.4 S 13 20 7 11 1017.1 1017.0 0.0
22/02:00pm 26.8 24.4 8.7 32 9.9 S 11 17 6 9 1017.3 1017.2 0.0
22/01:30pm 26.1 24.2 7.7 31 9.8 S 7 13 4 7 1017.7 1017.6 0.0
22/01:00pm 25.5 25.0 13.7 48 6.9 SSW 9 13 5 7 1018.0 1017.9 0.0
22/12:30pm 23.9 22.9 12.2 48 6.7 SSW 9 13 5 7 1018.5 1018.4 0.0
22/12:00pm 23.2 22.9 12.8 52 6.0 SE 6 9 3 5 1018.9 1018.8 0.0
22/11:30am 22.3 21.8 12.8 55 5.4 SW 7 11 4 6 1019.3 1019.2 0.0
22/11:00am 21.5 21.3 12.9 58 4.9 SW 6 11 3 6 1019.7 1019.7 0.0
22/10:30am 20.2 19.4 11.7 58 4.7 W 7 9 4 5 1020.0 1020.0 0.0
22/10:00am 18.6 18.5 10.9 61 4.2 SSW 2 9 1 5 1020.3 1020.3 0.0
22/09:30am 17.7 17.2 12.2 70 3.0 S 6 9 3 5 1020.5 1020.5 0.0
22/09:00am 14.6 15.6 13.3 92 0.7 CALM 0 0 0 0 1020.7 1020.7 0.0
22/08:30am 12.3 11.7 11.7 96 0.3 SSW 6 7 3 4 1021.1 1021.1 0.0
22/08:00am 10.6 9.3 10.0 96 0.3 WSW 7 9 4 5 1021.2 1021.2 0.0
22/07:42am 10.7 10.4 10.2 97 0.3 ENE 2 7 1 4 1021.0 1021.0 0.0
22/07:38am 10.1 9.7 9.6 97 0.3 N 2 7 1 4 1020.9 1020.9 0.0
22/07:30am 9.3 9.0 8.8 97 0.2 CALM 0 0 0 0 1021.1 1021.1 0.0
22/07:00am 7.1 5.0 6.5 96 0.3 NNE 7 9 4 5 1021.0 1021.0 0.0
22/06:30am 6.6 5.3 6.0 96 0.3 WSW 2 7 1 4 1020.8 1020.8 0.0
22/06:00am 6.4 5.4 5.7 95 0.3 CALM 0 0 0 0 1020.4 1020.4 0.0
22/05:30am 6.4 4.1 5.7 95 0.3 WSW 7 9 4 5 1020.0 1020.0 0.0

Other Formats:

Comma delimited format used in spreadsheet applications
http://www.bom.gov.au/fwo/IDW60801/IDW60801.94612.axf

JavaScript Object Notation format (JSON) in row-major order
http://www.bom.gov.au/fwo/IDW60801/IDW60801.94612.json